Tiempo atmosférico en la estación meteorológica de Mérida, Badajoz (220 m.)



Fecha
DESCASC
Temp. máxima en grados centígrados (hora)
DESCASC
Temp. mínima en grados centígrados (hora)
DESCASC
Temp. media en grados centígrados
DESCASC
Racha de viento máxima en m/sg (hora)
DESCASC
Velocidad máxima media en intervalos de 10 minutos(hora)
DESCASC
Precipitaciones diarias en mm
DESCASC
Precipitaciones de 00:00 a 06:00 en mm
DESCASC
Precipitaciones de 06:00 a 12:00 en mm
DESCASC
Precipitaciones de 12:00 a 18:00 en mm
DESCASC
Precipitaciones de 18:00 a 24:00 en mm
DESCASC
06-07-2020 -- (--) -- (--) -- -- (--) -- (--) -- -- 0 0 0
05-07-2020 -- (--) -- (--) -- -- (--) -- (--) -- -- -- -- --
04-07-2020 -- (--) -- (--) -- -- (--) -- (--) -- -- -- -- --
03-07-2020 -- (--) -- (--) -- -- (--) -- (--) -- -- -- -- --
02-07-2020 -- (--) -- (--) -- -- (--) -- (--) -- -- -- -- --
01-07-2020 -- (--) -- (--) -- -- (--) -- (--) -- -- -- -- --
30-06-2020 -- (--) -- (--) -- -- (--) -- (--) -- -- -- -- --
29-06-2020 -- (--) -- (--) -- -- (--) -- (--) -- -- -- -- --
28-06-2020 -- (--) -- (--) -- -- (--) -- (--) -- -- -- -- --
27-06-2020 -- (--) -- (--) -- -- (--) -- (--) -- -- -- -- --
26-06-2020 -- (--) -- (--) -- -- (--) -- (--) -- -- -- -- --
25-06-2020 -- (--) -- (--) -- -- (--) -- (--) -- 0 -- -- --
24-06-2020 -- (--) -- (--) -- 7.5 (17:50) 4.17 (17:50) 0 0 0 0 0
23-06-2020 -- (--) -- (--) -- 7.78 (23:00) 3.89 (23:10) 0 0 0 0 0
22-06-2020 -- (--) -- (--) -- 6.11 (17:10) 3.06 (15:50) 0 0 0 0 0
21-06-2020 -- (--) -- (--) -- 6.39 (17:30) 3.33 (00:30) 0 0 0 0 0
20-06-2020 -- (--) -- (--) -- 7.78 (18:50) 4.17 (19:20) 0 0 0 0 0
19-06-2020 -- (--) -- (--) -- 7.22 (00:40) 3.89 (00:10) 0 0 0 0 0
18-06-2020 -- (--) -- (--) -- 7.78 (21:00) 4.17 (21:00) 0 0 0 0 0
17-06-2020 -- (--) -- (--) -- 8.61 (20:00) 4.72 (19:20) 0 0 0 0 0
16-06-2020 -- (--) -- (--) -- 10.56 (19:20) 5.56 (18:30) 0 0 0 0 0
15-06-2020 -- (--) -- (--) -- 9.72 (19:50) 4.72 (19:30) 0 0 0 0 0
14-06-2020 -- (--) -- (--) -- 9.72 (15:10) 5 (17:20) 0 0 0 0 0
13-06-2020 -- (--) -- (--) -- 7.78 (17:30) 4.17 (17:40) 0 0 0 0 0
12-06-2020 -- (--) -- (--) -- 10.56 (18:10) 6.11 (10:20) 0 0 0 0 0
11-06-2020 -- (--) -- (--) -- 12.22 (19:10) 7.22 (15:00) 0 0 0 0 0

Gráficas

Temp. máximas Temp. mínimas Temp. medias Precipitaciones Rachas de viento máximas Velocidades máximas media en intervalos de 10 minutos

Datos horarios

Fecha y hora oficial Temperatura (ºC) Velocidad del viento (km/h) Dirección del viento Racha (km/h) Dirección de racha Precipitación (mm) Presión (hPa) Tendencia (hPa) Humedad (%)
2020-07-10 23:00:00 28.4 5 Sudoeste 9 Sudoeste 0 -- -- 36
2020-07-10 22:00:00 30.3 5 Sudoeste 10 Sudoeste 0 -- -- 35
2020-07-10 21:00:00 35.1 8 Sudoeste 15 Sudoeste 0 -- -- 28
2020-07-10 20:00:00 37.2 9 Sudoeste 18 Sudoeste 0 -- -- 23
2020-07-10 19:00:00 37.4 13 Sudoeste 24 Sudoeste 0 -- -- 22
2020-07-10 18:00:00 38.4 13 Sur 24 Sur 0 -- -- 23
2020-07-10 17:00:00 38 11 Sudoeste 19 Sudoeste 0 -- -- 24
2020-07-10 16:00:00 37.9 10 Sudoeste 18 Oeste 0 -- -- 22
2020-07-10 15:00:00 36.8 9 Oeste 15 Oeste 0 -- -- 22
2020-07-10 14:00:00 37 6 Norte 10 Nordeste 0 -- -- 23
2020-07-10 13:00:00 34.1 3 Norte 13 Sudoeste 0 -- -- 28
2020-07-10 12:00:00 30.5 4 Sudoeste 10 Oeste 0 -- -- 38
2020-07-10 11:00:00 27.7 4 Oeste 8 Sudoeste 0 -- -- 46
2020-07-10 10:00:00 24.5 4 Sudoeste 10 Sur 0 -- -- 56
2020-07-10 09:00:00 21.9 5 Sudoeste 9 Sudoeste 0 -- -- 64
2020-07-10 08:00:00 19.8 4 Sudoeste 9 Sudoeste 0 -- -- 71
2020-07-10 07:00:00 19 5 Sur 11 Sudoeste 0 -- -- 73
2020-07-10 06:00:00 20.4 8 Sudoeste 13 Sudoeste 0 -- -- 68
2020-07-10 05:00:00 20.5 6 Oeste 11 Sudoeste 0 -- -- 68
2020-07-10 04:00:00 22.3 8 Sudoeste 14 Sudoeste 0 -- -- 62
2020-07-10 03:00:00 23.2 8 Sur 14 Sudoeste 0 -- -- 61
2020-07-10 02:00:00 23.4 6 Sur 10 Sudoeste 0 -- -- 51
2020-07-10 01:00:00 23.3 6 Sudoeste 10 Sudoeste 0 -- -- 39
2020-07-10 00:00:00 23.5 4 Sudoeste 7 Sur 0 -- -- 37
2020-07-09 23:00:00 24.1 5 Sur 9 Sur 0 -- -- 37
2020-07-09 22:00:00 28.1 6 Sudoeste 12 Sudoeste 0 -- -- 30
2020-07-09 21:00:00 33 10 Sudoeste 17 Sudoeste 0 -- -- 24
2020-07-09 20:00:00 35.1 11 Sudoeste 21 Sudoeste 0 -- -- 21
2020-07-09 19:00:00 35 12 Oeste 19 Oeste 0 -- -- 22
2020-07-09 18:00:00 36.1 7 Sudoeste 17 Oeste 0 -- -- 21
2020-07-09 17:00:00 36.1 5 Oeste 15 Oeste 0 -- -- 22
2020-07-09 16:00:00 34.2 9 Sudeste 15 Oeste 0 -- -- 24
2020-07-09 15:00:00 34.3 7 Oeste 16 Oeste 0 -- -- 24
2020-07-09 14:00:00 31.4 6 Oeste 11 Sudoeste 0 -- -- 33
2020-07-09 13:00:00 29.2 7 Sudoeste 13 Sudoeste 0 -- -- 34
2020-07-09 12:00:00 28 4 Oeste 8 Noroeste 0 -- -- 45
2020-07-09 11:00:00 24.9 5 Sudoeste 8 Sudoeste 0 -- -- 54
2020-07-09 10:00:00 22 4 Oeste 9 Sudoeste 0 -- -- 64
2020-07-09 09:00:00 20 3 Oeste 7 Oeste 0 -- -- 71
2020-07-09 08:00:00 17.6 0 Calma 9 Oeste 0 -- -- 82
2020-07-09 07:00:00 17.5 4 Oeste 10 Oeste 0 -- -- 81
2020-07-09 06:00:00 16.9 4 Sudoeste 8 Oeste 0 -- -- 82
2020-07-09 05:00:00 18 3 Oeste 11 Sudoeste 0 -- -- 76
2020-07-09 04:00:00 19.4 0 Calma 18 Sudoeste 0 -- -- 69
2020-07-09 03:00:00 21.5 12 Sudoeste 17 Sur 0 -- -- 60
2020-07-09 02:00:00 22.1 10 Sudoeste 13 Sur 0 -- -- 58
2020-07-09 01:00:00 23.1 6 Sudoeste 12 Sudoeste 0 -- -- 55
2020-07-09 00:00:00 23.7 6 Sudoeste 11 Sudoeste 0 -- -- 51
2020-07-08 23:00:00 25.7 8 Sudoeste 13 Sudoeste 0 -- -- 40
2020-07-08 22:00:00 28.3 7 Sudoeste -- -- -- -- -- 31
2020-07-08 21:00:00 -- -- -- -- -- -- -- -- --
2020-07-08 20:00:00 34.4 15 Sudoeste -- -- -- -- -- 17
2020-07-08 19:00:00 -- -- -- -- -- -- -- -- --
2020-07-08 18:00:00 35.9 22 Sudoeste 30 Sudoeste 0 -- -- 15
2020-07-08 17:00:00 36.4 15 Oeste 27 Sudoeste 0 -- -- 18
2020-07-08 16:00:00 35.1 17 Oeste 25 Sudoeste 0 -- -- 23
2020-07-08 15:00:00 33.4 17 Sudoeste 27 Sudoeste 0 -- -- 26
2020-07-08 14:00:00 32.3 13 Sudoeste 21 Sudoeste 0 -- -- 32
2020-07-08 13:00:00 30 14 Sudoeste 21 Sudoeste 0 -- -- 37
2020-07-08 12:00:00 27.6 11 Sudoeste 17 Oeste 0 -- -- 44
2020-07-08 11:00:00 27 9 Sudoeste 17 Sudoeste 0 -- -- 46
2020-07-08 10:00:00 24.8 10 Sudoeste 15 Sudoeste 0 -- -- 51
2020-07-08 09:00:00 23.8 9 Sudoeste 14 Sudoeste 0 -- -- 51
2020-07-08 08:00:00 21.1 8 Sudoeste 11 Sudoeste 0 -- -- 57
2020-07-08 07:00:00 21 5 Sudoeste 6 Sudoeste 0 -- -- 60
2020-07-08 06:00:00 21.6 3 Sudoeste 7 Sudoeste 0 -- -- 59
2020-07-08 05:00:00 24 5 Sudoeste 17 Sudoeste 0 -- -- 47
2020-07-08 04:00:00 25.3 5 Sudoeste 12 Sudoeste 0 -- -- 43
2020-07-08 03:00:00 27 8 Sudoeste 15 Sur 0 -- -- 38
2020-07-08 02:00:00 27.2 7 Sur 17 Sudoeste 0 -- -- 39
2020-07-08 01:00:00 29.3 9 Sudoeste 12 Sudoeste 0 -- -- 30
2020-07-08 00:00:00 28.4 5 Sur 12 Sur 0 -- -- 33
2020-07-07 23:00:00 28.8 5 Sudoeste 6 Sur 0 -- -- 32
2020-07-07 22:00:00 30 3 Sur 4 Sur 0 -- -- 29
2020-07-07 21:00:00 37.3 4 Oeste 14 Oeste 0 -- -- 20
2020-07-07 20:00:00 39.5 8 Oeste 17 Oeste 0 -- -- 15
2020-07-07 19:00:00 40.4 8 Sudoeste 23 Oeste 0 -- -- 15
2020-07-07 18:00:00 41 10 Oeste 21 Sudoeste 0 -- -- 14
2020-07-07 17:00:00 40.5 13 Sudoeste 25 Sudoeste 0 -- -- 13
2020-07-07 16:00:00 40.3 15 Oeste 24 Sudoeste 0 -- -- 13
2020-07-07 15:00:00 39.3 12 Sudoeste 21 Sudoeste 0 -- -- 12
2020-07-07 14:00:00 36.4 10 Sudoeste 18 Sudoeste 0 -- -- 23
2020-07-07 13:00:00 35.3 10 Sudoeste 17 Sudoeste 0 -- -- 24
2020-07-07 12:00:00 33 6 Sudoeste 13 Oeste 0 -- -- 29
2020-07-07 11:00:00 29.5 7 Sudoeste 9 Sudoeste 0 -- -- 37
2020-07-07 10:00:00 27.8 0 Calma 4 Oeste 0 -- -- 35
2020-07-07 09:00:00 23.7 3 Oeste 4 Oeste 0 -- -- 45
2020-07-07 08:00:00 19.6 0 Calma 5 Sudoeste 0 -- -- 62
2020-07-07 07:00:00 17.3 0 Calma 3 Oeste 0 -- -- 64
2020-07-07 06:00:00 18.8 0 Calma 3 Este 0 -- -- 58
2020-07-07 05:00:00 19.6 2 Este 3 Norte 0 -- -- 54
2020-07-07 04:00:00 20.9 0 Calma 9 Sudoeste 0 -- -- 48
2020-07-07 03:00:00 23.6 5 Sur 10 Sudoeste 0 -- -- 42
2020-07-07 02:00:00 25.7 7 Sudoeste 13 Sudoeste 0 -- -- 39
2020-07-07 01:00:00 28.3 8 Sudoeste 14 Sur 0 -- -- 35
2020-07-07 00:00:00 28.7 8 Sudoeste 13 Sudoeste 0 -- -- 32
2020-07-06 23:00:00 29 6 Sur 10 Sudoeste 0 -- -- 32
2020-07-06 22:00:00 31.5 5 Sudoeste 10 Sur 0 -- -- 26
2020-07-06 21:00:00 37.4 5 Sur 13 Sudoeste 0 -- -- 20
2020-07-06 20:00:00 39.8 11 Sudoeste 18 Sudoeste 0 -- -- 17
2020-07-06 19:00:00 40.4 12 Sudoeste 20 Sudoeste 0 -- -- 14
2020-07-06 18:00:00 41.2 15 Sudoeste 24 Sudoeste 0 -- -- 13
2020-07-06 17:00:00 41.7 12 Sudoeste 22 Sudoeste 0 -- -- 13
2020-07-06 16:00:00 41.2 13 Sudoeste 18 Sudoeste 0 -- -- 14
2020-07-06 15:00:00 41.1 8 Sudoeste 16 Oeste 0 -- -- 14
2020-07-06 14:00:00 39 5 Oeste 10 Oeste 0 -- -- 18
2020-07-06 13:00:00 36.8 6 Sudoeste -- -- -- -- -- 23
2020-07-06 12:00:00 -- 3 Norte 6 Este 0 -- -- 27
2020-07-06 11:00:00 -- 3 Oeste 12 Sudoeste 0 -- -- 34
2020-07-06 10:00:00 -- 8 Sudoeste 13 Sudoeste 0 -- -- 41
2020-07-06 09:00:00 -- 4 Sudoeste 8 Sudoeste 0 -- -- 46
2020-07-06 08:00:00 -- 0 Calma 4 Sudoeste 0 -- -- 61
2020-07-06 07:00:00 -- 5 Sudoeste 6 Sudoeste 0 -- -- 61
2020-07-06 06:00:00 -- 0 Calma 5 Oeste 0 -- -- 59
2020-07-06 05:00:00 -- 3 Oeste 5 Sudoeste 0 -- -- 57
2020-07-06 04:00:00 -- 0 Calma 6 Oeste 0 -- -- 52
2020-07-06 03:00:00 -- 4 Sudoeste 10 Sudoeste 0 -- -- 45
2020-07-06 02:00:00 -- 7 Sudoeste 12 Sudoeste 0 -- -- 38
2020-07-06 01:00:00 -- -- -- -- -- -- -- -- --
2020-07-06 00:00:00 -- 3 Noroeste 7 Oeste 0 -- -- 37
2020-07-05 23:00:00 -- -- -- -- -- -- -- -- --
2020-07-05 22:00:00 -- 6 Sudeste -- -- -- -- -- 26
2020-07-05 21:00:00 -- -- -- -- -- -- -- -- --
2020-07-05 20:00:00 -- 8 Oeste -- -- -- -- -- 13
2020-07-05 19:00:00 -- 12 Oeste -- -- -- -- -- 14
2020-07-05 18:00:00 -- 10 Oeste 16 Sudoeste 0 -- -- 14
2020-07-05 17:00:00 -- 9 Sudoeste -- -- -- -- -- 14
2020-07-05 16:00:00 -- 12 Oeste 17 Sudoeste 0 -- -- 13
2020-07-05 15:00:00 -- 9 Noroeste -- -- -- -- -- 13
2020-07-05 14:00:00 -- -- -- -- -- -- -- -- --
2020-07-05 13:00:00 -- -- -- -- -- -- -- -- --
2020-07-05 12:00:00 -- -- -- -- -- -- -- -- --
2020-07-05 11:00:00 -- -- -- -- -- -- -- -- --
2020-07-05 10:00:00 -- -- -- -- -- -- -- -- --
2020-07-05 09:00:00 -- -- -- -- -- -- -- -- --
2020-07-05 08:00:00 -- -- -- -- -- -- -- -- --
2020-07-05 07:00:00 -- -- -- -- -- -- -- -- --
2020-07-05 06:00:00 -- -- -- -- -- -- -- -- --
2020-07-05 05:00:00 -- -- -- -- -- -- -- -- --
2020-07-05 04:00:00 -- -- -- -- -- -- -- -- --
2020-07-05 03:00:00 -- -- -- -- -- -- -- -- --
2020-07-05 02:00:00 -- -- -- -- -- -- -- -- --
2020-07-05 01:00:00 -- -- -- -- -- -- -- -- --
2020-07-05 00:00:00 -- -- -- -- -- -- -- -- --
2020-07-04 23:00:00 -- -- -- -- -- -- -- -- --
2020-07-04 22:00:00 -- -- -- -- -- -- -- -- --
2020-07-04 21:00:00 -- -- -- -- -- -- -- -- --
2020-07-04 20:00:00 -- -- -- -- -- -- -- -- --
2020-07-04 19:00:00 -- -- -- -- -- -- -- -- --
2020-07-04 18:00:00 -- -- -- -- -- -- -- -- --
2020-07-04 17:00:00 -- -- -- -- -- -- -- -- --
2020-07-04 16:00:00 -- -- -- -- -- -- -- -- --
2020-07-04 15:00:00 -- -- -- -- -- -- -- -- --
2020-07-04 14:00:00 -- -- -- -- -- -- -- -- --
2020-07-04 13:00:00 -- -- -- -- -- -- -- -- --
2020-07-04 12:00:00 -- -- -- -- -- -- -- -- --
2020-07-04 11:00:00 -- -- -- -- -- -- -- -- --
2020-07-04 10:00:00 -- -- -- -- -- -- -- -- --
2020-07-04 09:00:00 -- -- -- -- -- -- -- -- --
2020-07-04 08:00:00 -- -- -- -- -- -- -- -- --
2020-07-04 07:00:00 -- -- -- -- -- -- -- -- --
2020-07-04 06:00:00 -- -- -- -- -- -- -- -- --
2020-07-04 05:00:00 -- -- -- -- -- -- -- -- --
2020-07-04 04:00:00 -- -- -- -- -- -- -- -- --
2020-07-04 03:00:00 -- -- -- -- -- -- -- -- --
2020-07-04 02:00:00 -- -- -- -- -- -- -- -- --
2020-07-04 01:00:00 -- -- -- -- -- -- -- -- --
2020-07-04 00:00:00 -- -- -- -- -- -- -- -- --
2020-07-03 23:00:00 -- -- -- -- -- -- -- -- --
2020-07-03 22:00:00 -- -- -- -- -- -- -- -- --
2020-07-03 21:00:00 -- -- -- -- -- -- -- -- --
2020-07-03 20:00:00 -- -- -- -- -- -- -- -- --
2020-07-03 19:00:00 -- -- -- -- -- -- -- -- --
2020-07-03 18:00:00 -- -- -- -- -- -- -- -- --
2020-07-03 17:00:00 -- -- -- -- -- -- -- -- --
2020-07-03 16:00:00 -- -- -- -- -- -- -- -- --
2020-07-03 15:00:00 -- -- -- -- -- -- -- -- --
2020-07-03 14:00:00 -- -- -- -- -- -- -- -- --
2020-07-03 13:00:00 -- -- -- -- -- -- -- -- --
2020-07-03 12:00:00 -- -- -- -- -- -- -- -- --
2020-07-03 11:00:00 -- -- -- -- -- -- -- -- --
2020-07-03 10:00:00 -- -- -- -- -- -- -- -- --
2020-07-03 09:00:00 -- -- -- -- -- -- -- -- --
2020-07-03 08:00:00 -- -- -- -- -- -- -- -- --
2020-07-03 07:00:00 -- -- -- -- -- -- -- -- --
2020-07-03 06:00:00 -- -- -- -- -- -- -- -- --
2020-07-03 05:00:00 -- -- -- -- -- -- -- -- --
2020-07-03 04:00:00 -- -- -- -- -- -- -- -- --
2020-07-03 03:00:00 -- -- -- -- -- -- -- -- --
2020-07-03 02:00:00 -- -- -- -- -- -- -- -- --
2020-07-03 01:00:00 -- -- -- -- -- -- -- -- --
2020-07-03 00:00:00 -- -- -- -- -- -- -- -- --
2020-07-02 23:00:00 -- -- -- -- -- -- -- -- --
2020-07-02 22:00:00 -- -- -- -- -- -- -- -- --
2020-07-02 21:00:00 -- -- -- -- -- -- -- -- --
2020-07-02 20:00:00 -- -- -- -- -- -- -- -- --
2020-07-02 19:00:00 -- -- -- -- -- -- -- -- --
2020-07-02 18:00:00 -- -- -- -- -- -- -- -- --
2020-07-02 17:00:00 -- -- -- -- -- -- -- -- --
2020-07-02 16:00:00 -- -- -- -- -- -- -- -- --
2020-07-02 15:00:00 -- -- -- -- -- -- -- -- --
2020-07-02 14:00:00 -- -- -- -- -- -- -- -- --
2020-07-02 13:00:00 -- -- -- -- -- -- -- -- --
2020-07-02 12:00:00 -- -- -- -- -- -- -- -- --
2020-07-02 11:00:00 -- -- -- -- -- -- -- -- --
2020-07-02 10:00:00 -- -- -- -- -- -- -- -- --
2020-07-02 09:00:00 -- -- -- -- -- -- -- -- --
2020-07-02 08:00:00 -- -- -- -- -- -- -- -- --
2020-07-02 07:00:00 -- -- -- -- -- -- -- -- --
2020-07-02 06:00:00 -- -- -- -- -- -- -- -- --
2020-07-02 05:00:00 -- -- -- -- -- -- -- -- --
2020-07-02 04:00:00 -- -- -- -- -- -- -- -- --
2020-07-02 03:00:00 -- -- -- -- -- -- -- -- --
2020-07-02 02:00:00 -- -- -- -- -- -- -- -- --
2020-07-02 01:00:00 -- -- -- -- -- -- -- -- --
2020-07-02 00:00:00 -- -- -- -- -- -- -- -- --
2020-07-01 23:00:00 -- -- -- -- -- -- -- -- --
2020-07-01 22:00:00 -- -- -- -- -- -- -- -- --
2020-07-01 21:00:00 -- -- -- -- -- -- -- -- --
2020-07-01 20:00:00 -- -- -- -- -- -- -- -- --
2020-07-01 19:00:00 -- -- -- -- -- -- -- -- --
2020-07-01 18:00:00 -- -- -- -- -- -- -- -- --
2020-07-01 17:00:00 -- -- -- -- -- -- -- -- --
2020-07-01 16:00:00 -- -- -- -- -- -- -- -- --
2020-07-01 15:00:00 -- -- -- -- -- -- -- -- --
2020-07-01 14:00:00 -- -- -- -- -- -- -- -- --
2020-07-01 13:00:00 -- -- -- -- -- -- -- -- --
2020-07-01 12:00:00 -- -- -- -- -- -- -- -- --
2020-07-01 11:00:00 -- -- -- -- -- -- -- -- --
2020-07-01 10:00:00 -- -- -- -- -- -- -- -- --
2020-07-01 09:00:00 -- -- -- -- -- -- -- -- --
2020-07-01 08:00:00 -- -- -- -- -- -- -- -- --
2020-07-01 07:00:00 -- -- -- -- -- -- -- -- --
2020-07-01 06:00:00 -- -- -- -- -- -- -- -- --
2020-07-01 05:00:00 -- -- -- -- -- -- -- -- --
2020-07-01 04:00:00 -- -- -- -- -- -- -- -- --
2020-07-01 03:00:00 -- -- -- -- -- -- -- -- --
2020-07-01 02:00:00 -- -- -- -- -- -- -- -- --
2020-07-01 01:00:00 -- -- -- -- -- -- -- -- --
2020-07-01 00:00:00 -- -- -- -- -- -- -- -- --
2020-06-30 23:00:00 -- -- -- -- -- -- -- -- --
2020-06-30 22:00:00 -- -- -- -- -- -- -- -- --
2020-06-30 21:00:00 -- -- -- -- -- -- -- -- --
2020-06-30 20:00:00 -- -- -- -- -- -- -- -- --
2020-06-30 19:00:00 -- -- -- -- -- -- -- -- --
2020-06-30 18:00:00 -- -- -- -- -- -- -- -- --
2020-06-30 17:00:00 -- -- -- -- -- -- -- -- --
2020-06-30 16:00:00 -- -- -- -- -- -- -- -- --
2020-06-30 15:00:00 -- -- -- -- -- -- -- -- --
2020-06-30 14:00:00 -- -- -- -- -- -- -- -- --
2020-06-30 13:00:00 -- -- -- -- -- -- -- -- --
2020-06-30 12:00:00 -- -- -- -- -- -- -- -- --
2020-06-30 11:00:00 -- -- -- -- -- -- -- -- --
2020-06-30 10:00:00 -- -- -- -- -- -- -- -- --
2020-06-30 09:00:00 -- -- -- -- -- -- -- -- --
2020-06-30 08:00:00 -- -- -- -- -- -- -- -- --
2020-06-30 07:00:00 -- -- -- -- -- -- -- -- --
2020-06-30 06:00:00 -- -- -- -- -- -- -- -- --
2020-06-30 05:00:00 -- -- -- -- -- -- -- -- --
2020-06-30 04:00:00 -- -- -- -- -- -- -- -- --
2020-06-30 03:00:00 -- -- -- -- -- -- -- -- --
2020-06-30 02:00:00 -- -- -- -- -- -- -- -- --
2020-06-30 01:00:00 -- -- -- -- -- -- -- -- --
2020-06-30 00:00:00 -- -- -- -- -- -- -- -- --
2020-06-29 23:00:00 -- -- -- -- -- -- -- -- --
2020-06-29 22:00:00 -- -- -- -- -- -- -- -- --
2020-06-29 21:00:00 -- -- -- -- -- -- -- -- --
2020-06-29 20:00:00 -- -- -- -- -- -- -- -- --
2020-06-29 19:00:00 -- -- -- -- -- -- -- -- --
2020-06-29 18:00:00 -- -- -- -- -- -- -- -- --
2020-06-29 17:00:00 -- -- -- -- -- -- -- -- --
2020-06-29 16:00:00 -- -- -- -- -- -- -- -- --
2020-06-29 15:00:00 -- -- -- -- -- -- -- -- --
2020-06-29 14:00:00 -- -- -- -- -- -- -- -- --
2020-06-29 13:00:00 -- -- -- -- -- -- -- -- --
2020-06-29 12:00:00 -- -- -- -- -- -- -- -- --
2020-06-29 11:00:00 -- -- -- -- -- -- -- -- --
2020-06-29 10:00:00 -- -- -- -- -- -- -- -- --
2020-06-29 09:00:00 -- -- -- -- -- -- -- -- --
2020-06-29 08:00:00 -- -- -- -- -- -- -- -- --
2020-06-29 07:00:00 -- -- -- -- -- -- -- -- --
2020-06-29 06:00:00 -- -- -- -- -- -- -- -- --
2020-06-29 05:00:00 -- -- -- -- -- -- -- -- --
2020-06-29 04:00:00 -- -- -- -- -- -- -- -- --
2020-06-29 03:00:00 -- -- -- -- -- -- -- -- --
2020-06-29 02:00:00 -- -- -- -- -- -- -- -- --
2020-06-29 01:00:00 -- -- -- -- -- -- -- -- --
2020-06-29 00:00:00 -- -- -- -- -- -- -- -- --
2020-06-28 23:00:00 -- -- -- -- -- -- -- -- --
2020-06-28 22:00:00 -- -- -- -- -- -- -- -- --
2020-06-28 21:00:00 -- -- -- -- -- -- -- -- --
2020-06-28 20:00:00 -- -- -- -- -- -- -- -- --
2020-06-28 19:00:00 -- -- -- -- -- -- -- -- --
2020-06-28 18:00:00 -- -- -- -- -- -- -- -- --
2020-06-28 17:00:00 -- -- -- -- -- -- -- -- --
2020-06-28 16:00:00 -- -- -- -- -- -- -- -- --
2020-06-28 15:00:00 -- -- -- -- -- -- -- -- --
2020-06-28 14:00:00 -- -- -- -- -- -- -- -- --
2020-06-28 13:00:00 -- -- -- -- -- -- -- -- --
2020-06-28 12:00:00 -- -- -- -- -- -- -- -- --
2020-06-28 11:00:00 -- -- -- -- -- -- -- -- --
2020-06-28 10:00:00 -- -- -- -- -- -- -- -- --
2020-06-28 09:00:00 -- -- -- -- -- -- -- -- --
2020-06-28 08:00:00 -- -- -- -- -- -- -- -- --
2020-06-28 07:00:00 -- -- -- -- -- -- -- -- --
2020-06-28 06:00:00 -- -- -- -- -- -- -- -- --
2020-06-28 05:00:00 -- -- -- -- -- -- -- -- --
2020-06-28 04:00:00 -- -- -- -- -- -- -- -- --
2020-06-28 03:00:00 -- -- -- -- -- -- -- -- --
2020-06-28 02:00:00 -- -- -- -- -- -- -- -- --
2020-06-28 01:00:00 -- -- -- -- -- -- -- -- --
2020-06-28 00:00:00 -- -- -- -- -- -- -- -- --
2020-06-27 23:00:00 -- -- -- -- -- -- -- -- --
2020-06-27 22:00:00 -- -- -- -- -- -- -- -- --
2020-06-27 21:00:00 -- -- -- -- -- -- -- -- --
2020-06-27 20:00:00 -- -- -- -- -- -- -- -- --
2020-06-27 19:00:00 -- -- -- -- -- -- -- -- --
2020-06-27 18:00:00 -- -- -- -- -- -- -- -- --
2020-06-27 17:00:00 -- -- -- -- -- -- -- -- --
2020-06-27 16:00:00 -- -- -- -- -- -- -- -- --
2020-06-27 15:00:00 -- -- -- -- -- -- -- -- --
2020-06-27 14:00:00 -- -- -- -- -- -- -- -- --
2020-06-27 13:00:00 -- -- -- -- -- -- -- -- --
2020-06-27 12:00:00 -- -- -- -- -- -- -- -- --
2020-06-27 11:00:00 -- -- -- -- -- -- -- -- --
2020-06-27 10:00:00 -- -- -- -- -- -- -- -- --
2020-06-27 09:00:00 -- -- -- -- -- -- -- -- --
2020-06-27 08:00:00 -- -- -- -- -- -- -- -- --
2020-06-27 07:00:00 -- -- -- -- -- -- -- -- --
2020-06-27 06:00:00 -- -- -- -- -- -- -- -- --
2020-06-27 05:00:00 -- -- -- -- -- -- -- -- --
2020-06-27 04:00:00 -- -- -- -- -- -- -- -- --
2020-06-27 03:00:00 -- -- -- -- -- -- -- -- --
2020-06-27 02:00:00 -- -- -- -- -- -- -- -- --
2020-06-27 01:00:00 -- -- -- -- -- -- -- -- --
2020-06-27 00:00:00 -- -- -- -- -- -- -- -- --
2020-06-26 23:00:00 -- -- -- -- -- -- -- -- --
2020-06-26 22:00:00 -- -- -- -- -- -- -- -- --
2020-06-26 21:00:00 -- -- -- -- -- -- -- -- --
2020-06-26 20:00:00 -- -- -- -- -- -- -- -- --
2020-06-26 19:00:00 -- -- -- -- -- -- -- -- --
2020-06-26 18:00:00 -- -- -- -- -- -- -- -- --
2020-06-26 17:00:00 -- -- -- -- -- -- -- -- --
2020-06-26 16:00:00 -- -- -- -- -- -- -- -- --
2020-06-26 15:00:00 -- -- -- -- -- -- -- -- --
2020-06-26 14:00:00 -- -- -- -- -- -- -- -- --
2020-06-26 13:00:00 -- -- -- -- -- -- -- -- --
2020-06-26 12:00:00 -- -- -- -- -- -- -- -- --
2020-06-26 11:00:00 -- -- -- -- -- -- -- -- --
2020-06-26 10:00:00 -- -- -- -- -- -- -- -- --
2020-06-26 09:00:00 -- -- -- -- -- -- -- -- --
2020-06-26 08:00:00 -- -- -- -- -- -- -- -- --
2020-06-26 07:00:00 -- -- -- -- -- -- -- -- --
2020-06-26 06:00:00 -- -- -- -- -- -- -- -- --
2020-06-26 05:00:00 -- -- -- -- -- -- -- -- --
2020-06-26 04:00:00 -- -- -- -- -- -- -- -- --
2020-06-26 03:00:00 -- -- -- -- -- -- -- -- --
2020-06-26 02:00:00 -- -- -- -- -- -- -- -- --
2020-06-26 01:00:00 -- -- -- -- -- -- -- -- --
2020-06-26 00:00:00 -- -- -- -- -- -- -- -- --
2020-06-25 23:00:00 -- -- -- -- -- -- -- -- --
2020-06-25 22:00:00 -- -- -- -- -- -- -- -- --
2020-06-25 21:00:00 -- -- -- -- -- -- -- -- --
2020-06-25 20:00:00 -- -- -- -- -- -- -- -- --
2020-06-25 19:00:00 -- -- -- -- -- -- -- -- --
2020-06-25 18:00:00 -- -- -- -- -- -- -- -- --
2020-06-25 17:00:00 -- -- -- -- -- -- -- -- --
2020-06-25 16:00:00 -- -- -- -- -- -- -- -- --
2020-06-25 15:00:00 -- -- -- -- -- -- -- -- --
2020-06-25 14:00:00 -- -- -- -- -- -- -- -- --
2020-06-25 13:00:00 -- -- -- -- -- -- -- -- --
2020-06-25 12:00:00 -- -- -- -- -- -- -- -- --
2020-06-25 11:00:00 -- 0 Calma -- -- 0 -- -- --
2020-06-25 10:00:00 -- 0 Calma -- -- 0 -- -- --
2020-06-25 09:00:00 -- 0 Calma 7 Noroeste 0 -- -- --
2020-06-25 08:00:00 -- 3 Oeste 6 Sur 0 -- -- 84
2020-06-25 07:00:00 -- 3 Oeste 9 Oeste 0 -- -- 89
2020-06-25 06:00:00 -- 2 Oeste 7 Oeste 0 -- -- 85
2020-06-25 05:00:00 -- 2 Oeste 9 Oeste 0 -- -- 82
2020-06-25 04:00:00 -- 4 Oeste 8 Noroeste 0 -- -- 76
2020-06-25 03:00:00 -- 4 Oeste 9 Oeste 0 -- -- 68
2020-06-25 02:00:00 -- 4 Oeste 19 Sudoeste 0 -- -- 56
2020-06-25 01:00:00 -- 6 Sudoeste 15 Sur 0 -- -- 42
2020-06-25 00:00:00 -- 5 Sudoeste 11 Oeste 0 -- -- 45
2020-06-24 23:00:00 -- 4 Sudoeste 9 Noroeste 0 -- -- 43
2020-06-24 22:00:00 -- 5 Oeste 16 Oeste 0 -- -- 34
2020-06-24 21:00:00 -- 9 Noroeste 17 Oeste 0 -- -- 29
2020-06-24 20:00:00 -- 8 Oeste 22 Oeste 0 -- -- 25
2020-06-24 19:00:00 -- 10 Oeste 26 Oeste 0 -- -- 24
2020-06-24 18:00:00 -- 8 Oeste 27 Oeste 0 -- -- 24
2020-06-24 17:00:00 -- 10 Oeste 24 Sudoeste 0 -- -- 24
2020-06-24 16:00:00 -- 9 Oeste 24 Oeste 0 -- -- 23
2020-06-24 15:00:00 -- 9 Oeste 21 Oeste 0 -- -- 29
2020-06-24 14:00:00 -- 6 Oeste 18 Oeste 0 -- -- 36
2020-06-24 13:00:00 -- 4 Oeste 17 Oeste 0 -- -- 40
2020-06-24 12:00:00 -- 8 Oeste 18 Oeste 0 -- -- 42
2020-06-24 11:00:00 -- 7 Oeste 14 Oeste 0 -- -- 52
2020-06-24 10:00:00 -- 4 Oeste 10 Noroeste 0 -- -- 62
2020-06-24 09:00:00 -- 4 Noroeste 9 Oeste 0 -- -- 74
2020-06-24 08:00:00 -- 5 Oeste 12 Noroeste 0 -- -- 79
2020-06-24 07:00:00 -- 6 Oeste 18 Oeste 0 -- -- 75
2020-06-24 06:00:00 -- 4 Oeste 13 Oeste 0 -- -- 68
2020-06-24 05:00:00 -- 4 Oeste 8 Sudoeste 0 -- -- 65
2020-06-24 04:00:00 -- 4 Sudoeste 11 Oeste 0 -- -- 52
2020-06-24 03:00:00 -- 5 Sudoeste 22 Sudoeste 0 -- -- 50
2020-06-24 02:00:00 -- 9 Sudoeste 20 Sudoeste 0 -- -- 42
2020-06-24 01:00:00 -- 7 Sudoeste 18 Sudoeste 0 -- -- 40
2020-06-24 00:00:00 -- 10 Sudoeste 28 Sudoeste 0 -- -- 33
2020-06-23 23:00:00 -- 12 Sudoeste 28 Sudoeste 0 -- -- 27
2020-06-23 22:00:00 -- 5 Sudoeste 12 Oeste 0 -- -- 34
2020-06-23 21:00:00 -- 4 Sudoeste 14 Oeste 0 -- -- 26
2020-06-23 20:00:00 -- 8 Oeste 21 Oeste 0 -- -- 19
2020-06-23 19:00:00 -- 12 Oeste 22 Oeste 0 -- -- 16
2020-06-23 18:00:00 -- 11 Oeste 21 Oeste 0 -- -- 13
2020-06-23 17:00:00 -- 3 Sudoeste 21 Sur 0 -- -- 14
2020-06-23 16:00:00 -- 12 Sur 25 Sudeste 0 -- -- 14
2020-06-23 15:00:00 -- 10 Sudeste 23 Sur 0 -- -- 13
2020-06-23 14:00:00 -- 2 Sudoeste 15 Oeste 0 -- -- 16
2020-06-23 13:00:00 -- 6 Noroeste 14 Noroeste 0 -- -- 21
2020-06-23 12:00:00 -- 4 Sudeste 19 Este 0 -- -- 20
2020-06-23 11:00:00 -- 13 Este 19 Sudeste 0 -- -- 23
2020-06-23 10:00:00 -- 8 Este 13 Este 0 -- -- 27
2020-06-23 09:00:00 -- 5 Este 11 Este 0 -- -- 33
2020-06-23 08:00:00 -- 4 Este 5 Este 0 -- -- 43
2020-06-23 07:00:00 -- 5 Este 9 Este 0 -- -- 44
2020-06-23 06:00:00 -- 6 Sudeste 12 Sudeste 0 -- -- 34
2020-06-23 05:00:00 -- 2 Nordeste 9 Este 0 -- -- 52
2020-06-23 04:00:00 -- 2 Este 4 Este 0 -- -- 52
2020-06-23 03:00:00 -- 3 Este 9 Este 0 -- -- 46
2020-06-23 02:00:00 -- 5 Este 13 Oeste 0 -- -- 41
2020-06-23 01:00:00 -- 0 Calma 13 Este 0 -- -- 37
2020-06-23 00:00:00 -- 7 Este 12 Este 0 -- -- 35
2020-06-22 23:00:00 -- 3 Sudoeste 10 Sudoeste 0 -- -- 34
2020-06-22 22:00:00 -- 3 Sur 7 Sudoeste 0 -- -- 33
2020-06-22 21:00:00 -- 4 Este 10 Este 0 -- -- 15
2020-06-22 20:00:00 -- 3 Este 12 Este 0 -- -- 13
2020-06-22 19:00:00 -- 4 Este 17 Norte 0 -- -- 13
2020-06-22 18:00:00 -- 5 Nordeste 22 Sur 0 -- -- 12
2020-06-22 17:00:00 -- 5 Nordeste 18 Nordeste 0 -- -- 13
2020-06-22 16:00:00 -- 8 Este 21 Este 0 -- -- 15
2020-06-22 15:00:00 -- 6 Sudeste 17 Sudeste 0 -- -- 15
2020-06-22 14:00:00 -- 5 Nordeste 18 Este 0 -- -- 17
2020-06-22 13:00:00 -- 6 Nordeste 19 Este 0 -- -- 19
2020-06-22 12:00:00 -- 7 Este 14 Nordeste 0 -- -- 28
2020-06-22 11:00:00 -- 5 Nordeste 10 Este 0 -- -- 41
2020-06-22 10:00:00 -- 0 Calma 6 Nordeste 0 -- -- 58
2020-06-22 09:00:00 -- 3 Oeste 6 Oeste 0 -- -- 75
2020-06-22 08:00:00 -- 0 Calma 2 Noroeste 0 -- -- 91
2020-06-22 07:00:00 -- 0 Calma 2 Sudoeste 0 -- -- 95
2020-06-22 06:00:00 -- 0 Calma 8 Oeste 0 -- -- 95
2020-06-22 05:00:00 -- 5 Oeste 9 Oeste 0 -- -- 85
2020-06-22 04:00:00 -- 5 Sudoeste 14 Oeste 0 -- -- 77
2020-06-22 03:00:00 -- 8 Sudoeste 17 Sudoeste 0 -- -- 71
2020-06-22 02:00:00 -- 7 Sudoeste 16 Oeste 0 -- -- 67
2020-06-22 01:00:00 -- 6 Sudoeste 15 Sudoeste 0 -- -- 60
2020-06-22 00:00:00 -- 7 Sudoeste 16 Sudoeste 0 -- -- 42
2020-06-21 23:00:00 -- 2 Oeste 6 Oeste 0 -- -- 40
2020-06-21 22:00:00 -- 2 Oeste 8 Oeste 0 -- -- 34
2020-06-21 21:00:00 -- 3 Noroeste 16 Oeste 0 -- -- 17
2020-06-21 20:00:00 -- 8 Oeste 21 Oeste 0 -- -- 13
2020-06-21 19:00:00 -- 9 Sudoeste 19 Sudoeste 0 -- -- 19
2020-06-21 18:00:00 -- 8 Oeste 23 Oeste 0 -- -- 20
2020-06-21 17:00:00 -- 9 Oeste 21 Oeste 0 -- -- 23
2020-06-21 16:00:00 -- 8 Sudoeste 22 Oeste 0 -- -- 27
2020-06-21 15:00:00 -- 5 Sudoeste 18 Oeste 0 -- -- 32
2020-06-21 14:00:00 -- 6 Sudoeste 17 Oeste 0 -- -- 34
2020-06-21 13:00:00 -- 5 Sudoeste 17 Oeste 0 -- -- 42
2020-06-21 12:00:00 -- 6 Sudoeste 16 Oeste 0 -- -- 51
2020-06-21 11:00:00 -- 6 Oeste 14 Oeste 0 -- -- 61
2020-06-21 10:00:00 -- 5 Oeste 14 Oeste 0 -- -- 70
2020-06-21 09:00:00 -- 6 Oeste 14 Oeste 0 -- -- 79
2020-06-21 08:00:00 -- 3 Oeste 8 Oeste 0 -- -- 90
2020-06-21 07:00:00 -- 5 Oeste 12 Sudoeste 0 -- -- 95
2020-06-21 06:00:00 -- 6 Sudoeste 15 Oeste 0 -- -- 91
2020-06-21 05:00:00 -- 5 Oeste 15 Oeste 0 -- -- 89
2020-06-21 04:00:00 -- 7 Sudoeste 16 Sudoeste 0 -- -- 80
2020-06-21 03:00:00 -- 7 Sudoeste 15 Oeste 0 -- -- 76
2020-06-21 02:00:00 -- 8 Sudoeste 17 Sudoeste 0 -- -- 67
2020-06-21 01:00:00 -- 7 Sudoeste 19 Oeste 0 -- -- 57
2020-06-21 00:00:00 -- 10 Sudoeste 18 Oeste 0 -- -- 50
2020-06-20 23:00:00 -- 6 Oeste 18 Oeste 0 -- -- 37
2020-06-20 22:00:00 -- 5 Oeste 16 Oeste 0 -- -- 30
2020-06-20 21:00:00 -- 10 Oeste 26 Oeste 0 -- -- 24
2020-06-20 20:00:00 -- 11 Oeste 26 Sudoeste 0 -- -- 21
2020-06-20 19:00:00 -- 13 Sudoeste 28 Sudoeste 0 -- -- 20
2020-06-20 18:00:00 -- 10 Sudoeste 26 Oeste 0 -- -- 20
2020-06-20 17:00:00 -- 8 Sudoeste 22 Oeste 0 -- -- 18
2020-06-20 16:00:00 -- 8 Oeste 21 Oeste 0 -- -- 20
2020-06-20 15:00:00 -- 7 Oeste 18 Oeste 0 -- -- 23
2020-06-20 14:00:00 -- 6 Oeste 17 Oeste 0 -- -- 22
2020-06-20 13:00:00 -- 6 Oeste 17 Sudoeste 0 -- -- 32
2020-06-20 12:00:00 -- 4 Oeste 13 Oeste 0 -- -- 40
2020-06-20 11:00:00 -- 4 Oeste 11 Oeste 0 -- -- 51
2020-06-20 10:00:00 -- 3 Oeste 11 Oeste 0 -- -- 58
2020-06-20 09:00:00 -- 4 Oeste 9 Oeste 0 -- -- 66
2020-06-20 08:00:00 -- 2 Oeste 6 Oeste 0 -- -- 78
2020-06-20 07:00:00 -- 4 Oeste 9 Oeste 0 -- -- 89
2020-06-20 06:00:00 -- 4 Oeste 9 Oeste 0 -- -- 86
2020-06-20 05:00:00 -- 5 Oeste 14 Sudoeste 0 -- -- 73
2020-06-20 04:00:00 -- 6 Oeste 13 Oeste 0 -- -- 70
2020-06-20 03:00:00 -- 5 Sudoeste 14 Oeste 0 -- -- 67
2020-06-20 02:00:00 -- 6 Sudoeste 15 Sudoeste 0 -- -- 61
2020-06-20 01:00:00 -- 6 Sudoeste 12 Sudoeste 0 -- -- 51
2020-06-20 00:00:00 -- 5 Sudoeste 12 Sudoeste 0 -- -- 44
2020-06-19 23:00:00 -- 5 Sudoeste 10 Oeste 0 -- -- 38
2020-06-19 22:00:00 -- 5 Sudoeste 13 Sudoeste 0 -- -- 34
2020-06-19 21:00:00 -- 8 Oeste 19 Sudoeste 0 -- -- 23
2020-06-19 20:00:00 -- 12 Oeste 23 Oeste 0 -- -- 19
2020-06-19 19:00:00 -- 10 Oeste 24 Sudoeste 0 -- -- 21
2020-06-19 18:00:00 -- 9 Sudoeste 24 Sudoeste 0 -- -- 21
2020-06-19 17:00:00 -- 10 Oeste 24 Oeste 0 -- -- 18
2020-06-19 16:00:00 -- 9 Oeste 21 Oeste 0 -- -- 19
2020-06-19 15:00:00 -- 8 Oeste 21 Oeste 0 -- -- 26
2020-06-19 14:00:00 -- 9 Oeste 21 Oeste 0 -- -- 31
2020-06-19 13:00:00 -- 7 Oeste 19 Oeste 0 -- -- 38
2020-06-19 12:00:00 -- 7 Oeste 17 Oeste 0 -- -- 48
2020-06-19 11:00:00 -- 5 Oeste 18 Oeste 0 -- -- 60
2020-06-19 10:00:00 -- 7 Oeste 18 Oeste 0 -- -- 64
2020-06-19 09:00:00 -- 10 Oeste 19 Oeste 0 -- -- 71
2020-06-19 08:00:00 -- 6 Oeste 13 Oeste 0 -- -- 83
2020-06-19 07:00:00 -- 5 Oeste 11 Sudoeste 0 -- -- 89
2020-06-19 06:00:00 -- 5 Oeste 15 Oeste 0 -- -- 81
2020-06-19 05:00:00 -- 7 Sudoeste 19 Oeste 0 -- -- 76
2020-06-19 04:00:00 -- 9 Oeste 18 Oeste 0 -- -- 72
2020-06-19 03:00:00 -- 7 Sudoeste 19 Sudoeste 0 -- -- 66
2020-06-19 02:00:00 -- 8 Sudoeste 19 Oeste 0 -- -- 60
2020-06-19 01:00:00 -- 10 Oeste 26 Oeste 0 -- -- 52
2020-06-19 00:00:00 -- 12 Oeste 28 Oeste 0 -- -- 47
2020-06-18 23:00:00 -- 8 Oeste 26 Oeste 0 -- -- 45
2020-06-18 22:00:00 -- 8 Oeste 24 Oeste 0 -- -- 39
2020-06-18 21:00:00 -- 15 Oeste 28 Sudoeste 0 -- -- 34
2020-06-18 20:00:00 -- 9 Oeste 22 Oeste 0 -- -- 29
2020-06-18 19:00:00 -- 9 Sudoeste 23 Oeste 0 -- -- 26
2020-06-18 18:00:00 -- 6 Oeste 22 Sudoeste 0 -- -- 19
2020-06-18 17:00:00 -- 7 Sudoeste 20 Sudoeste 0 -- -- 23
2020-06-18 16:00:00 -- 5 Sudoeste 17 Oeste 0 -- -- 23
2020-06-18 15:00:00 -- 3 Sudoeste 14 Oeste 0 -- -- 21
2020-06-18 14:00:00 -- 5 Oeste 17 Oeste 0 -- -- 31
2020-06-18 13:00:00 -- 4 Oeste 15 Oeste 0 -- -- 41
2020-06-18 12:00:00 -- 5 Oeste 15 Oeste 0 -- -- 49
2020-06-18 11:00:00 -- 5 Sudoeste 17 Oeste 0 -- -- 61
2020-06-18 10:00:00 -- 6 Sudoeste 13 Sudoeste 0 -- -- 69
2020-06-18 09:00:00 -- 5 Oeste 12 Oeste 0 -- -- 74
2020-06-18 08:00:00 -- 4 Sudoeste 8 Sudoeste 0 -- -- 84
2020-06-18 07:00:00 -- 4 Sudoeste 7 Oeste 0 -- -- 96
2020-06-18 06:00:00 -- 5 Sudoeste 9 Oeste 0 -- -- 92
2020-06-18 05:00:00 -- 4 Oeste 15 Sudoeste 0 -- -- 84
2020-06-18 04:00:00 -- 7 Sudoeste 16 Sudoeste 0 -- -- 77
2020-06-18 03:00:00 -- 6 Sudoeste 18 Sudoeste 0 -- -- 72
2020-06-18 02:00:00 -- 7 Sudoeste 14 Sudoeste 0 -- -- 67
2020-06-18 01:00:00 -- 4 Sudoeste 12 Oeste 0 -- -- 62
2020-06-18 00:00:00 -- 5 Oeste 14 Oeste 0 -- -- 53
2020-06-17 23:00:00 -- 5 Sudoeste 13 Sudoeste 0 -- -- 54
2020-06-17 22:00:00 -- 6 Sudoeste 21 Oeste 0 -- -- 45
2020-06-17 21:00:00 -- 14 Oeste 29 Oeste 0 -- -- 35
2020-06-17 20:00:00 -- 17 Sudoeste 31 Sudoeste 0 -- -- 33
2020-06-17 19:00:00 -- 15 Sudoeste 29 Oeste 0 -- -- 32
2020-06-17 18:00:00 -- 9 Oeste 31 Oeste 0 -- -- 28
2020-06-17 17:00:00 -- 12 Sudoeste 27 Oeste 0 -- -- 27
2020-06-17 16:00:00 -- 13 Sudoeste 28 Oeste 0 -- -- 30
2020-06-17 15:00:00 -- 14 Sudoeste 30 Oeste 0 -- -- 33
2020-06-17 14:00:00 -- 10 Oeste 30 Sudoeste 0 -- -- 39
2020-06-17 13:00:00 -- 12 Sudoeste 27 Oeste 0 -- -- 43
2020-06-17 12:00:00 -- 14 Oeste 28 Oeste 0 -- -- 51
2020-06-17 11:00:00 -- 11 Oeste 23 Oeste 0 -- -- 54
2020-06-17 10:00:00 -- 13 Oeste 22 Oeste 0 -- -- 60
2020-06-17 09:00:00 -- 8 Oeste 17 Sudoeste 0 -- -- 70
2020-06-17 08:00:00 -- 6 Sudoeste 16 Oeste 0 -- -- 81
2020-06-17 07:00:00 -- 5 Sudoeste 13 Sudoeste 0 -- -- 82
2020-06-17 06:00:00 -- 5 Sudoeste 11 Sudoeste 0 -- -- 85
2020-06-17 05:00:00 -- 6 Sudoeste 15 Sudoeste 0 -- -- 83
2020-06-17 04:00:00 -- 8 Oeste 18 Oeste 0 -- -- 64
2020-06-17 03:00:00 -- 8 Oeste 19 Noroeste 0 -- -- 60
2020-06-17 02:00:00 -- 9 Oeste 19 Oeste 0 -- -- 64
2020-06-17 01:00:00 -- 5 Oeste 14 Sudoeste 0 -- -- 65
2020-06-17 00:00:00 -- 6 Oeste 15 Oeste 0 -- -- 58
2020-06-16 23:00:00 -- 9 Noroeste 24 Noroeste 0 -- -- 52
2020-06-16 22:00:00 -- 11 Oeste 28 Oeste 0 -- -- 45
2020-06-16 21:00:00 -- 14 Oeste 31 Sudoeste 0 -- -- 38
2020-06-16 20:00:00 -- 18 Oeste 38 Oeste 0 -- -- 36
2020-06-16 19:00:00 -- 18 Oeste 36 Sudoeste 0 -- -- 36
2020-06-16 18:00:00 -- 20 Oeste 37 Oeste 0 -- -- 38
2020-06-16 17:00:00 -- 18 Oeste 36 Oeste 0 -- -- 39
2020-06-16 16:00:00 -- 15 Oeste 36 Sudoeste 0 -- -- 40
2020-06-16 15:00:00 -- 18 Sudoeste 36 Oeste 0 -- -- 42
2020-06-16 14:00:00 -- 15 Oeste 33 Sudoeste 0 -- -- 43
2020-06-16 13:00:00 -- 16 Oeste 30 Sudoeste 0 -- -- 42
2020-06-16 12:00:00 -- 13 Oeste 28 Oeste 0 -- -- 48
2020-06-16 11:00:00 -- 10 Oeste 22 Sudoeste 0 -- -- 57
2020-06-16 10:00:00 -- 10 Sudoeste 21 Oeste 0 -- -- 68
2020-06-16 09:00:00 -- 12 Sudoeste 18 Sudoeste 0 -- -- 77
2020-06-16 08:00:00 -- 8 Oeste 14 Oeste 0 -- -- 89
2020-06-16 07:00:00 -- 6 Sudoeste 16 Sudoeste 0 -- -- 92
2020-06-16 06:00:00 -- 5 Sudoeste 16 Sudoeste 0 -- -- 88
2020-06-16 05:00:00 -- 6 Sudoeste 14 Oeste 0 -- -- 85
2020-06-16 04:00:00 -- 7 Sudoeste 19 Oeste 0 -- -- 77
2020-06-16 03:00:00 -- 10 Oeste 19 Oeste 0 -- -- 68
2020-06-16 02:00:00 -- 7 Oeste 18 Noroeste 0 -- -- 59
2020-06-16 01:00:00 -- 9 Oeste 21 Oeste 0 -- -- 55
2020-06-16 00:00:00 -- 10 Oeste 22 Oeste 0 -- -- 52
2020-06-15 23:00:00 -- 12 Oeste 24 Oeste 0 -- -- 47
2020-06-15 22:00:00 -- 10 Oeste 28 Oeste 0 -- -- 44
2020-06-15 21:00:00 -- 15 Oeste 28 Oeste 0 -- -- 37
2020-06-15 20:00:00 -- 16 Sudoeste 35 Sudoeste 0 -- -- 33
2020-06-15 19:00:00 -- 15 Sudoeste 31 Oeste 0 -- -- 32
2020-06-15 18:00:00 -- 12 Oeste 30 Oeste 0 -- -- 29
2020-06-15 17:00:00 -- 14 Oeste 30 Sudoeste 0 -- -- 30
2020-06-15 16:00:00 -- 11 Sudoeste 28 Oeste 0 -- -- 29
2020-06-15 15:00:00 -- 12 Oeste 27 Oeste 0 -- -- 33
2020-06-15 14:00:00 -- 10 Oeste 27 Oeste 0 -- -- 34
2020-06-15 13:00:00 -- 10 Oeste 22 Sur 0 -- -- 38
2020-06-15 12:00:00 -- 8 Oeste 25 Oeste 0 -- -- 47
2020-06-15 11:00:00 -- 9 Oeste 19 Sudoeste 0 -- -- 55
2020-06-15 10:00:00 -- 5 Oeste 15 Oeste 0 -- -- 64
2020-06-15 09:00:00 -- 7 Oeste 15 Oeste 0 -- -- 71
2020-06-15 08:00:00 -- 5 Oeste 8 Sudoeste 0 -- -- 80
2020-06-15 07:00:00 -- 5 Sudoeste 9 Oeste 0 -- -- 93
2020-06-15 06:00:00 -- 4 Sudoeste 13 Sudoeste 0 -- -- 88
2020-06-15 05:00:00 -- 6 Sudoeste 13 Sudoeste 0 -- -- 84
2020-06-15 04:00:00 -- 6 Sudoeste 15 Sudoeste 0 -- -- 77
2020-06-15 03:00:00 -- 7 Sudoeste 15 Sudoeste 0 -- -- 76
2020-06-15 02:00:00 -- 6 Sudoeste 12 Sudoeste 0 -- -- 68
2020-06-15 01:00:00 -- 5 Sudoeste 9 Oeste 0 -- -- 67
2020-06-15 00:00:00 -- 4 Oeste 16 Oeste 0 -- -- 53
2020-06-14 23:00:00 -- 5 Oeste 18 Sudoeste 0 -- -- 46
2020-06-14 22:00:00 -- 8 Oeste 24 Oeste 0 -- -- 39
2020-06-14 21:00:00 -- 12 Oeste 25 Oeste 0 -- -- 33
2020-06-14 20:00:00 -- 15 Oeste 29 Oeste 0 -- -- 28
2020-06-14 19:00:00 -- 10 Oeste 30 Oeste 0 -- -- 28
2020-06-14 18:00:00 -- 13 Oeste 29 Sudoeste 0 -- -- 27
2020-06-14 17:00:00 -- 15 Sudoeste 33 Sudoeste 0 -- -- 27
2020-06-14 16:00:00 -- 12 Oeste 35 Oeste 0 -- -- 28
2020-06-14 15:00:00 -- 12 Oeste 29 Oeste 0 -- -- 29
2020-06-14 14:00:00 -- 12 Oeste 24 Oeste 0 -- -- 31
2020-06-14 13:00:00 -- 10 Oeste 21 Oeste 0 -- -- 36
2020-06-14 12:00:00 -- 9 Sudoeste 20 Oeste 0 -- -- 42
2020-06-14 11:00:00 -- 10 Oeste 20 Sudoeste 0 -- -- 55
2020-06-14 10:00:00 -- 6 Sudoeste 17 Sudoeste 0 -- -- 62
2020-06-14 09:00:00 -- 9 Oeste 15 Oeste 0 -- -- 73
2020-06-14 08:00:00 -- 2 Oeste 10 Sudoeste 0 -- -- 86
2020-06-14 07:00:00 -- 6 Oeste 10 Sudoeste 0 -- -- 88
2020-06-14 06:00:00 -- 6 Oeste 12 Sudoeste 0 -- -- 85
2020-06-14 05:00:00 -- 5 Sudoeste 13 Sudoeste 0 -- -- 81
2020-06-14 04:00:00 -- 6 Sudoeste 12 Sudoeste 0 -- -- 81
2020-06-14 03:00:00 -- 5 Sudoeste 12 Sudoeste 0 -- -- 73
2020-06-14 02:00:00 -- 3 Sur 10 Oeste 0 -- -- 78
2020-06-14 01:00:00 -- 5 Oeste 12 Oeste 0 -- -- 61
2020-06-14 00:00:00 -- 3 Sudoeste 7 Oeste 0 -- -- 64
2020-06-13 23:00:00 -- 4 Oeste 10 Oeste 0 -- -- 55
2020-06-13 22:00:00 -- 0 Calma 17 Oeste 0 -- -- 49
2020-06-13 21:00:00 -- 7 Oeste 19 Oeste 0 -- -- 33
2020-06-13 20:00:00 -- 9 Oeste 24 Oeste 0 -- -- 29
2020-06-13 19:00:00 -- 12 Oeste 27 Oeste 0 -- -- 29
2020-06-13 18:00:00 -- 10 Sudoeste 28 Oeste 0 -- -- 31
2020-06-13 17:00:00 -- 9 Sudoeste 26 Oeste 0 -- -- 26
2020-06-13 16:00:00 -- 9 Sudoeste 23 Sudoeste 0 -- -- 29
2020-06-13 15:00:00 -- 14 Sudoeste 26 Oeste 0 -- -- 31
2020-06-13 14:00:00 -- 9 Oeste 21 Sudoeste 0 -- -- 36
2020-06-13 13:00:00 -- 5 Oeste 22 Sudoeste 0 -- -- 44
2020-06-13 12:00:00 -- 6 Oeste 15 Oeste 0 -- -- 56
2020-06-13 11:00:00 -- 5 Oeste 19 Oeste 0 -- -- 61
2020-06-13 10:00:00 -- 6 Oeste 14 Sudoeste 0 -- -- 74
2020-06-13 09:00:00 -- 4 Sudoeste 13 Sudoeste 0 -- -- 83
2020-06-13 08:00:00 -- 3 Oeste 6 Oeste 0 -- -- 94
2020-06-13 07:00:00 -- 4 Sudoeste 10 Sudoeste 0 -- -- 97
2020-06-13 06:00:00 -- 6 Sudoeste 12 Sudoeste 0 -- -- 95
2020-06-13 05:00:00 -- 4 Sudoeste 13 Sudoeste 0 -- -- 95
2020-06-13 04:00:00 -- 8 Sudoeste 15 Sudoeste 0 -- -- 90
2020-06-13 03:00:00 -- 6 Sudoeste 14 Sudoeste 0 -- -- 84
2020-06-13 02:00:00 -- 5 Sudoeste 14 Sudoeste 0 -- -- 79
2020-06-13 01:00:00 -- 5 Sudoeste 13 Sudoeste 0 -- -- 76
2020-06-13 00:00:00 -- 6 Oeste 14 Oeste 0 -- -- 65
2020-06-12 23:00:00 -- 4 Oeste 19 Oeste 0 -- -- 65
2020-06-12 22:00:00 -- 9 Oeste 23 Sudoeste 0 -- -- 55
2020-06-12 21:00:00 -- 10 Sudoeste 35 Oeste 0 -- -- 53
2020-06-12 20:00:00 -- 15 Oeste 32 Sudoeste 0 -- -- 45
2020-06-12 19:00:00 -- 14 Oeste 38 Oeste 0 -- -- 51
2020-06-12 18:00:00 -- 17 Sudoeste 32 Oeste 0 -- -- 42
2020-06-12 17:00:00 -- 12 Sudoeste 31 Oeste 0 -- -- 43
2020-06-12 16:00:00 -- 15 Sudoeste 30 Sudoeste 0 -- -- 47
2020-06-12 15:00:00 -- 13 Sudoeste 33 Sudoeste 0 -- -- 43
2020-06-12 14:00:00 -- 17 Oeste 30 Sudoeste 0 -- -- 49
2020-06-12 13:00:00 -- 13 Oeste 32 Sudoeste 0 -- -- 50
2020-06-12 12:00:00 -- 18 Sudoeste 32 Oeste 0 -- -- 55
2020-06-12 11:00:00 -- 15 Sudoeste 36 Sudoeste 0 -- -- 60
2020-06-12 10:00:00 -- 21 Oeste 32 Oeste 0 -- -- 59
2020-06-12 09:00:00 -- 13 Oeste 24 Oeste 0 -- -- 70
2020-06-12 08:00:00 -- 13 Oeste 26 Oeste 0 -- -- 75
2020-06-12 07:00:00 -- 9 Oeste 20 Sudoeste 0 -- -- 79
2020-06-12 06:00:00 -- 7 Sudoeste 23 Sudoeste 0 -- -- 81
2020-06-12 05:00:00 -- 10 Oeste 22 Oeste 0 -- -- 80
2020-06-12 04:00:00 -- 10 Sudoeste 25 Oeste 0 -- -- 77
2020-06-12 03:00:00 -- 15 Oeste 30 Oeste 0 -- -- 73
2020-06-12 02:00:00 -- 12 Oeste 30 Oeste 0 -- -- 64
2020-06-12 01:00:00 -- 12 Oeste 29 Oeste 0 -- -- 62
2020-06-12 00:00:00 -- 15 Oeste 32 Oeste 0 -- -- 58
2020-06-11 23:00:00 -- 15 Oeste 30 Oeste 0 -- -- 57
2020-06-11 22:00:00 -- 19 Oeste 37 Oeste 0 -- -- 54
2020-06-11 21:00:00 -- 20 Oeste 38 Oeste 0 -- -- 58
2020-06-11 20:00:00 -- 15 Oeste 44 Oeste 0 -- -- 67
2020-06-11 19:00:00 -- 23 Oeste 41 Oeste 0 -- -- 54
2020-06-11 18:00:00 -- 22 Oeste 41 Oeste 0 -- -- 48
2020-06-11 17:00:00 -- 25 Oeste 42 Oeste 0 -- -- 44
2020-06-11 16:00:00 -- 18 Oeste 40 Sudoeste 0 -- -- 43
2020-06-11 15:00:00 -- 26 Oeste 42 Oeste 0 -- -- 46
2020-06-11 14:00:00 -- 25 Oeste 43 Oeste 0 -- -- 45
2020-06-11 13:00:00 -- 17 Oeste 30 Oeste 0 -- -- 45
2020-06-11 12:00:00 -- 16 Oeste 32 Oeste 0 -- -- 47
2020-06-11 11:00:00 -- 13 Sudoeste 28 Oeste 0 -- -- 59
2020-06-11 10:00:00 -- 13 Oeste 28 Oeste 0 -- -- 69
2020-06-11 09:00:00 -- 17 Oeste 27 Oeste 0 -- -- 79
2020-06-11 08:00:00 -- 10 Sudoeste 21 Sudoeste 0 -- -- 84
2020-06-11 07:00:00 -- 9 Sudoeste 19 Sudoeste 0 -- -- 87
2020-06-11 06:00:00 -- 8 Sudoeste 18 Sudoeste 0 -- -- 88
2020-06-11 05:00:00 -- 6 Sudoeste 23 Oeste 0 -- -- 87
2020-06-11 04:00:00 -- 8 Oeste 24 Oeste 0 -- -- 81
2020-06-11 03:00:00 -- 10 Oeste 21 Oeste 0 -- -- 74
2020-06-11 02:00:00 -- 9 Sudoeste 23 Oeste 0 -- -- 66
2020-06-11 01:00:00 -- 12 Oeste 28 Oeste 0 -- -- 57
2020-06-11 00:00:00 -- 12 Oeste 25 Oeste 0 -- -- 55